createdAt,value
2023-03-26T00:00:14.069Z,53.66
2023-03-26T00:01:14.118Z,50.76
2023-03-26T00:02:14.110Z,54.62
2023-03-26T00:03:14.084Z,50.11
2023-03-26T00:04:14.106Z,51.08
2023-03-26T00:05:14.110Z,61.87
2023-03-26T00:06:14.096Z,53.17
2023-03-26T00:07:14.069Z,49.15
2023-03-26T00:08:14.015Z,52.05
2023-03-26T00:09:14.060Z,50.43
2023-03-26T00:10:14.023Z,54.79
2023-03-26T00:11:14.000Z,51.56
2023-03-26T00:12:14.040Z,54.14
2023-03-26T00:13:13.995Z,50.60
2023-03-26T00:14:14.184Z,50.76
2023-03-26T00:15:13.999Z,55.91
2023-03-26T00:16:14.022Z,50.60
2023-03-26T00:17:13.996Z,50.92
2023-03-26T00:18:13.978Z,54.30
2023-03-26T00:19:13.986Z,53.01
2023-03-26T00:20:13.976Z,54.14
2023-03-26T00:21:13.971Z,59.62
2023-03-26T00:22:13.982Z,55.91
2023-03-26T00:23:13.970Z,60.10
2023-03-26T00:24:13.966Z,62.20
2023-03-26T00:25:13.934Z,62.04
2023-03-26T00:26:13.938Z,61.87
2023-03-26T00:27:13.975Z,62.20
2023-03-26T00:28:13.956Z,61.55
2023-03-26T00:29:14.055Z,60.42
2023-03-26T00:30:13.976Z,62.04
2023-03-26T00:31:13.958Z,62.84
2023-03-26T00:32:13.919Z,63.33
2023-03-26T00:33:13.939Z,60.75
2023-03-26T00:34:13.916Z,64.45
2023-03-26T00:35:14.928Z,60.91
2023-03-26T00:36:13.951Z,60.26
2023-03-26T00:37:13.886Z,59.30
2023-03-26T00:38:13.887Z,60.59
2023-03-26T00:39:13.921Z,59.46
2023-03-26T00:40:13.947Z,57.52
2023-03-26T00:41:13.887Z,59.14
2023-03-26T00:42:13.873Z,58.17
2023-03-26T00:43:13.893Z,55.27
2023-03-26T00:44:13.894Z,54.46
2023-03-26T00:45:13.884Z,53.17
2023-03-26T00:46:13.933Z,49.79
2023-03-26T00:47:13.845Z,50.92
2023-03-26T00:48:13.837Z,51.56
2023-03-26T00:49:13.851Z,48.82
2023-03-26T00:50:13.891Z,49.47
2023-03-26T00:51:13.817Z,57.20
2023-03-26T00:52:14.826Z,52.85
2023-03-26T00:53:13.830Z,51.24
2023-03-26T00:54:13.828Z,60.10
2023-03-26T00:55:13.825Z,48.02
2023-03-26T00:56:13.847Z,49.15
2023-03-26T00:57:18.243Z,51.72
2023-03-26T00:58:14.800Z,48.98
2023-03-26T00:59:13.794Z,59.46
2023-03-26T01:00:13.781Z,51.56
2023-03-26T01:01:13.979Z,49.15
2023-03-26T01:02:13.817Z,48.34
2023-03-26T01:03:21.809Z,56.56
2023-03-26T01:04:15.908Z,50.76
2023-03-26T01:05:13.817Z,51.08
2023-03-26T01:06:13.765Z,49.47
2023-03-26T01:07:13.796Z,50.92
2023-03-26T01:08:13.736Z,57.69
2023-03-26T01:09:13.796Z,54.30
2023-03-26T01:10:13.722Z,49.47
2023-03-26T01:11:13.756Z,48.18
2023-03-26T01:12:13.747Z,48.34
2023-03-26T01:13:13.717Z,48.66
2023-03-26T01:14:13.717Z,48.82
2023-03-26T01:15:13.699Z,47.86
2023-03-26T01:16:13.726Z,47.86
2023-03-26T01:17:14.722Z,48.66
2023-03-26T01:18:13.692Z,48.02
2023-03-26T01:19:13.696Z,53.01
2023-03-26T01:20:13.718Z,53.33
2023-03-26T01:21:13.702Z,56.07
2023-03-26T01:22:13.718Z,48.02
2023-03-26T01:23:13.689Z,47.70
2023-03-26T01:24:13.736Z,47.86
2023-03-26T01:25:13.668Z,47.37
2023-03-26T01:26:13.646Z,47.37
2023-03-26T01:27:13.690Z,47.37
2023-03-26T01:28:13.663Z,50.76
2023-03-26T01:29:13.633Z,57.04
2023-03-26T01:30:13.641Z,51.24
2023-03-26T01:31:13.630Z,49.95
2023-03-26T01:32:13.627Z,50.27
2023-03-26T01:33:13.807Z,48.02
2023-03-26T01:34:13.625Z,47.53
2023-03-26T01:35:13.655Z,51.72
2023-03-26T01:36:13.607Z,50.60
2023-03-26T01:37:13.613Z,51.40
2023-03-26T01:38:13.627Z,58.33
2023-03-26T01:39:13.580Z,47.70
2023-03-26T01:40:13.629Z,53.50
2023-03-26T01:41:13.607Z,56.40
2023-03-26T01:42:13.604Z,47.37
2023-03-26T01:43:13.574Z,47.70
2023-03-26T01:44:13.582Z,47.37
2023-03-26T01:45:13.587Z,47.53
2023-03-26T01:46:13.587Z,47.37
2023-03-26T01:47:13.566Z,54.62
2023-03-26T01:48:13.569Z,53.82
2023-03-26T01:49:13.887Z,59.62
2023-03-26T01:50:13.565Z,51.88
2023-03-26T01:51:13.527Z,58.49
2023-03-26T01:52:13.531Z,53.50
2023-03-26T01:53:13.561Z,51.56
2023-03-26T01:54:13.522Z,47.37
2023-03-26T01:55:13.518Z,52.05
2023-03-26T01:56:13.549Z,52.69
2023-03-26T01:57:13.540Z,52.05
2023-03-26T01:58:13.491Z,48.18
2023-03-26T01:59:13.511Z,47.21
2023-03-26T02:00:13.496Z,58.97
2023-03-26T02:01:13.535Z,47.86
2023-03-26T02:02:13.590Z,52.85
2023-03-26T02:03:13.616Z,47.53
2023-03-26T02:04:13.483Z,47.37
2023-03-26T02:05:13.493Z,47.37
2023-03-26T02:06:13.463Z,47.37
2023-03-26T02:07:13.495Z,51.40
2023-03-26T02:08:13.491Z,51.56
2023-03-26T02:09:13.480Z,56.56
2023-03-26T02:10:13.461Z,55.27
2023-03-26T02:11:13.488Z,49.47
2023-03-26T02:12:13.475Z,57.52
2023-03-26T02:13:13.471Z,55.59
2023-03-26T02:14:13.448Z,47.53
2023-03-26T02:15:13.414Z,47.21
2023-03-26T02:16:13.473Z,47.53
2023-03-26T02:17:13.410Z,53.17
2023-03-26T02:18:13.404Z,47.53
2023-03-26T02:19:13.412Z,47.70
2023-03-26T02:20:13.394Z,54.30
2023-03-26T02:21:13.382Z,56.07
2023-03-26T02:22:13.413Z,50.92
2023-03-26T02:23:13.382Z,47.53
2023-03-26T02:24:13.364Z,54.30
2023-03-26T02:25:13.368Z,50.43
2023-03-26T02:26:13.367Z,53.17
2023-03-26T02:27:14.410Z,58.17
2023-03-26T02:28:13.353Z,52.05
2023-03-26T02:29:13.430Z,47.37
2023-03-26T02:30:14.355Z,53.98
2023-03-26T02:31:13.377Z,49.79
2023-03-26T02:32:13.323Z,50.43
2023-03-26T02:33:13.368Z,47.70
2023-03-26T02:34:13.340Z,51.72
2023-03-26T02:35:13.398Z,47.53
2023-03-26T02:36:13.399Z,49.31
2023-03-26T02:37:13.380Z,48.34
2023-03-26T02:38:13.328Z,49.15
2023-03-26T02:39:13.294Z,47.70
2023-03-26T02:40:13.341Z,47.37
2023-03-26T02:41:13.293Z,47.37
2023-03-26T02:42:13.287Z,53.98
2023-03-26T02:43:13.280Z,59.62
2023-03-26T02:44:13.295Z,56.40
2023-03-26T02:45:13.305Z,52.21
2023-03-26T02:46:13.469Z,52.37
2023-03-26T02:47:13.289Z,56.40
2023-03-26T02:48:13.255Z,54.14
2023-03-26T02:49:13.254Z,47.70
2023-03-26T02:50:13.274Z,48.34
2023-03-26T02:51:13.228Z,57.52
2023-03-26T02:52:13.252Z,47.70
2023-03-26T02:53:13.268Z,47.37
2023-03-26T02:54:13.227Z,52.53
2023-03-26T02:55:13.246Z,52.69
2023-03-26T02:56:13.249Z,49.79
2023-03-26T02:57:13.338Z,47.37
2023-03-26T02:58:13.196Z,53.01
2023-03-26T02:59:13.201Z,62.04
2023-03-26T03:00:13.258Z,49.31
2023-03-26T03:01:13.259Z,56.88
2023-03-26T03:02:13.256Z,48.18
2023-03-26T03:03:13.240Z,47.70
2023-03-26T03:04:13.176Z,47.53
2023-03-26T03:05:13.155Z,49.47
2023-03-26T03:06:13.187Z,52.53
2023-03-26T03:07:13.154Z,50.76
2023-03-26T03:08:13.162Z,47.70
2023-03-26T03:09:13.140Z,47.53
2023-03-26T03:10:13.151Z,47.70
2023-03-26T03:11:13.171Z,48.34
2023-03-26T03:12:13.141Z,57.20
2023-03-26T03:13:13.142Z,52.05
2023-03-26T03:14:13.161Z,52.37
2023-03-26T03:15:13.124Z,52.53
2023-03-26T03:16:13.198Z,48.82
2023-03-26T03:17:13.126Z,48.18
2023-03-26T03:18:13.091Z,48.18
2023-03-26T03:19:14.135Z,48.66
2023-03-26T03:20:13.112Z,49.63
2023-03-26T03:21:13.115Z,50.27
2023-03-26T03:22:13.116Z,48.02
2023-03-26T03:23:13.118Z,52.85
2023-03-26T03:24:13.101Z,47.70
2023-03-26T03:25:13.083Z,56.56
2023-03-26T03:26:13.081Z,55.75
2023-03-26T03:27:13.065Z,53.01
2023-03-26T03:28:13.101Z,51.56
2023-03-26T03:29:13.132Z,49.95
2023-03-26T03:30:13.079Z,58.49
2023-03-26T03:31:13.077Z,52.85
2023-03-26T03:32:13.070Z,53.01
2023-03-26T03:33:13.075Z,55.43
2023-03-26T03:34:13.054Z,59.78
2023-03-26T03:35:13.037Z,54.95
2023-03-26T03:36:19.907Z,54.30
2023-03-26T03:37:14.021Z,54.79
2023-03-26T03:38:13.034Z,57.04
2023-03-26T03:39:13.049Z,48.50
2023-03-26T03:40:13.008Z,56.72
2023-03-26T03:41:13.021Z,47.86
2023-03-26T03:42:13.004Z,49.95
2023-03-26T03:43:13.023Z,56.88
2023-03-26T03:44:13.043Z,47.70
2023-03-26T03:45:12.984Z,47.86
2023-03-26T03:46:13.059Z,49.47
2023-03-26T03:47:12.977Z,52.05
2023-03-26T03:48:12.967Z,58.65
2023-03-26T03:49:13.004Z,48.98
2023-03-26T03:50:12.993Z,54.62
2023-03-26T03:51:12.966Z,50.11
2023-03-26T03:52:12.944Z,56.56
2023-03-26T03:53:12.944Z,50.60
2023-03-26T03:54:12.971Z,50.92
2023-03-26T03:55:12.985Z,50.43
2023-03-26T03:56:12.943Z,58.33
2023-03-26T03:57:12.948Z,53.50
2023-03-26T03:58:12.912Z,47.70
2023-03-26T03:59:12.948Z,47.70
2023-03-26T04:00:12.935Z,47.37
2023-03-26T04:01:12.934Z,47.53
2023-03-26T04:02:12.932Z,47.53
2023-03-26T04:03:12.957Z,47.37
2023-03-26T04:04:13.069Z,50.60
2023-03-26T04:05:12.897Z,47.37
2023-03-26T04:06:12.908Z,48.82
2023-03-26T04:07:12.874Z,50.43
2023-03-26T04:08:12.879Z,49.31
2023-03-26T04:09:12.875Z,51.72
2023-03-26T04:10:12.851Z,56.56
2023-03-26T04:11:12.879Z,54.30
2023-03-26T04:12:12.877Z,57.69
2023-03-26T04:13:12.885Z,54.46
2023-03-26T04:14:12.859Z,55.43
2023-03-26T04:15:12.838Z,56.07
2023-03-26T04:16:12.870Z,53.66
2023-03-26T04:17:12.826Z,55.43
2023-03-26T04:18:12.860Z,59.94
2023-03-26T04:19:12.806Z,55.75
2023-03-26T04:20:12.819Z,59.30
2023-03-26T04:21:12.849Z,58.17
2023-03-26T04:22:12.844Z,58.81
2023-03-26T04:23:12.799Z,55.11
2023-03-26T04:24:12.822Z,56.72
2023-03-26T04:25:12.791Z,58.33
2023-03-26T04:26:12.792Z,61.71
2023-03-26T04:27:12.778Z,57.20
2023-03-26T04:28:12.790Z,60.59
2023-03-26T04:29:12.767Z,58.81
2023-03-26T04:30:12.758Z,57.20
2023-03-26T04:31:12.821Z,57.04
2023-03-26T04:32:12.737Z,63.16
2023-03-26T04:33:12.769Z,57.20
2023-03-26T04:34:12.759Z,58.97
2023-03-26T04:35:12.733Z,60.26
2023-03-26T04:36:12.776Z,58.65
2023-03-26T04:37:12.721Z,59.46
2023-03-26T04:38:12.773Z,57.69
2023-03-26T04:39:12.722Z,58.17
2023-03-26T04:40:12.732Z,55.59
2023-03-26T04:41:12.715Z,54.79
2023-03-26T04:42:12.725Z,58.81
2023-03-26T04:43:12.679Z,61.07
2023-03-26T04:44:12.691Z,55.11
2023-03-26T04:45:12.769Z,57.69
2023-03-26T04:46:12.732Z,56.56
2023-03-26T04:47:12.666Z,59.46
2023-03-26T04:48:12.676Z,55.75
2023-03-26T04:49:12.682Z,52.53
2023-03-26T04:50:12.692Z,55.11
2023-03-26T04:51:12.669Z,55.91
2023-03-26T04:52:12.669Z,52.21
2023-03-26T04:53:12.639Z,49.63
2023-03-26T04:54:13.659Z,58.17
2023-03-26T04:55:12.642Z,49.31
2023-03-26T04:56:12.625Z,52.69
2023-03-26T04:57:12.661Z,55.11
2023-03-26T04:58:12.602Z,54.62
2023-03-26T04:59:12.606Z,50.92
2023-03-26T05:00:12.627Z,57.36
2023-03-26T05:01:12.617Z,52.37
2023-03-26T05:02:12.600Z,51.88
2023-03-26T05:03:12.595Z,55.11
2023-03-26T05:04:12.669Z,57.69
2023-03-26T05:05:12.572Z,57.69
2023-03-26T05:06:12.602Z,54.95
2023-03-26T05:07:12.609Z,55.91
2023-03-26T05:08:12.571Z,58.65
2023-03-26T05:09:12.549Z,59.62
2023-03-26T05:10:12.569Z,50.76
2023-03-26T05:11:12.561Z,53.17
2023-03-26T05:12:12.553Z,56.72
2023-03-26T05:13:12.556Z,55.75
2023-03-26T05:14:12.536Z,52.69
2023-03-26T05:15:12.541Z,53.50
2023-03-26T05:16:12.582Z,50.60
2023-03-26T05:17:12.549Z,53.01
2023-03-26T05:18:12.539Z,56.24
2023-03-26T05:19:12.525Z,55.43
2023-03-26T05:20:12.479Z,54.14
2023-03-26T05:21:12.515Z,51.56
2023-03-26T05:22:12.486Z,56.07
2023-03-26T05:23:12.535Z,53.33
2023-03-26T05:24:12.479Z,54.62
2023-03-26T05:25:12.488Z,54.79
2023-03-26T05:26:12.462Z,61.55
2023-03-26T05:27:12.449Z,56.56
2023-03-26T05:28:12.474Z,55.27
2023-03-26T05:29:12.443Z,57.04
2023-03-26T05:30:12.442Z,53.17
2023-03-26T05:31:12.429Z,50.76
2023-03-26T05:32:12.417Z,50.92
2023-03-26T05:33:12.512Z,56.88
2023-03-26T05:34:12.408Z,61.55
2023-03-26T05:35:12.398Z,51.40
2023-03-26T05:36:12.379Z,52.37
2023-03-26T05:37:13.409Z,55.59
2023-03-26T05:38:12.458Z,57.69
2023-03-26T05:39:12.412Z,56.72
2023-03-26T05:40:12.395Z,54.95
2023-03-26T05:41:12.378Z,54.14
2023-03-26T05:42:12.366Z,54.62
2023-03-26T05:43:12.377Z,59.62
2023-03-26T05:44:12.383Z,53.82
2023-03-26T05:45:12.349Z,51.24
2023-03-26T05:46:12.449Z,60.10
2023-03-26T05:47:12.337Z,52.69
2023-03-26T05:48:12.349Z,52.21
2023-03-26T05:49:12.369Z,53.66
2023-03-26T05:50:12.351Z,52.85
2023-03-26T05:51:12.386Z,51.72
2023-03-26T05:52:12.315Z,53.01
2023-03-26T05:53:12.307Z,55.43
2023-03-26T05:54:12.351Z,54.62
2023-03-26T05:55:12.308Z,52.53
2023-03-26T05:56:12.300Z,59.94
2023-03-26T05:57:12.370Z,56.88
2023-03-26T05:58:12.354Z,54.46
2023-03-26T05:59:12.313Z,60.42
2023-03-26T06:00:12.273Z,63.00
2023-03-26T06:01:12.307Z,63.00
2023-03-26T06:02:12.269Z,64.94
2023-03-26T06:03:12.372Z,66.06
2023-03-26T06:04:12.344Z,66.23
2023-03-26T06:05:12.307Z,51.56
2023-03-26T06:06:12.290Z,49.95
2023-03-26T06:07:12.285Z,53.50
2023-03-26T06:08:12.256Z,56.07
2023-03-26T06:09:12.220Z,56.88
2023-03-26T06:10:17.985Z,55.11
2023-03-26T06:11:13.282Z,54.14
2023-03-26T06:12:12.229Z,54.14
2023-03-26T06:13:12.208Z,52.85
2023-03-26T06:14:12.207Z,54.79
2023-03-26T06:15:12.203Z,52.69
2023-03-26T06:16:26.307Z,57.85
2023-03-26T06:17:13.197Z,51.88
2023-03-26T06:18:12.294Z,58.33
2023-03-26T06:19:12.263Z,53.66
2023-03-26T06:20:12.185Z,53.50
2023-03-26T06:21:12.203Z,56.88
2023-03-26T06:22:12.177Z,58.65
2023-03-26T06:23:12.184Z,58.17
2023-03-26T06:24:12.167Z,54.79
2023-03-26T06:25:12.143Z,54.14
2023-03-26T06:26:12.189Z,57.69
2023-03-26T06:27:12.184Z,57.69
2023-03-26T06:28:12.141Z,58.17
2023-03-26T06:29:12.149Z,59.94
2023-03-26T06:30:12.140Z,55.11
2023-03-26T06:31:12.193Z,57.52
2023-03-26T06:32:19.758Z,57.20
2023-03-26T06:33:14.126Z,58.33
2023-03-26T06:34:12.119Z,56.07
2023-03-26T06:35:12.123Z,56.24
2023-03-26T06:36:12.141Z,56.40
2023-03-26T06:37:12.103Z,56.24
2023-03-26T06:38:12.130Z,57.04
2023-03-26T06:39:12.115Z,58.65
2023-03-26T06:40:13.602Z,55.11
2023-03-26T06:41:12.100Z,57.69
2023-03-26T06:42:12.095Z,58.49
2023-03-26T06:43:12.119Z,57.36
2023-03-26T06:44:12.083Z,58.33
2023-03-26T06:45:12.074Z,54.95
2023-03-26T06:46:12.093Z,60.59
2023-03-26T06:47:12.069Z,53.66
2023-03-26T06:48:12.098Z,55.43
2023-03-26T06:49:12.096Z,60.91
2023-03-26T06:50:12.043Z,55.11
2023-03-26T06:51:12.065Z,58.17
2023-03-26T06:52:12.121Z,57.52
2023-03-26T06:53:12.047Z,54.62
2023-03-26T06:54:12.098Z,53.50
2023-03-26T06:55:12.066Z,56.56
2023-03-26T06:56:12.200Z,53.17
2023-03-26T06:57:12.069Z,56.56
2023-03-26T06:58:12.008Z,51.56
2023-03-26T06:59:12.038Z,60.26
2023-03-26T07:00:12.034Z,58.33
2023-03-26T07:01:12.020Z,57.36
2023-03-26T07:02:12.012Z,58.01
2023-03-26T07:03:11.977Z,58.17
2023-03-26T07:04:12.102Z,58.49
2023-03-26T07:05:12.096Z,59.14
2023-03-26T07:06:11.981Z,55.43
2023-03-26T07:07:11.983Z,57.20
2023-03-26T07:08:11.979Z,51.24
2023-03-26T07:09:11.997Z,55.27
2023-03-26T07:10:11.987Z,57.20
2023-03-26T07:11:11.961Z,60.75
2023-03-26T07:12:11.946Z,59.14
2023-03-26T07:13:11.946Z,58.33
2023-03-26T07:14:11.939Z,56.88
2023-03-26T07:15:11.958Z,60.26
2023-03-26T07:16:11.961Z,53.66
2023-03-26T07:17:11.990Z,56.40
2023-03-26T07:18:11.928Z,58.65
2023-03-26T07:19:11.938Z,56.72
2023-03-26T07:20:11.915Z,57.69
2023-03-26T07:21:11.909Z,57.52
2023-03-26T07:22:12.152Z,58.33
2023-03-26T07:23:11.901Z,53.98
2023-03-26T07:24:11.918Z,58.01
2023-03-26T07:25:11.902Z,54.30
2023-03-26T07:26:11.887Z,60.26
2023-03-26T07:27:11.890Z,58.97
2023-03-26T07:28:11.906Z,61.55
2023-03-26T07:29:11.996Z,53.33
2023-03-26T07:30:11.874Z,58.17
2023-03-26T07:31:11.898Z,54.14
2023-03-26T07:32:11.843Z,55.59
2023-03-26T07:33:11.878Z,56.40
2023-03-26T07:34:12.041Z,54.79
2023-03-26T07:35:11.837Z,50.60
2023-03-26T07:36:11.870Z,55.27
2023-03-26T07:37:11.815Z,53.98
2023-03-26T07:38:11.818Z,53.01
2023-03-26T07:39:11.806Z,56.56
2023-03-26T07:40:11.819Z,53.98
2023-03-26T07:41:11.825Z,55.91
2023-03-26T07:42:11.818Z,57.36
2023-03-26T07:43:11.791Z,62.52
2023-03-26T07:44:11.834Z,59.30
2023-03-26T07:45:11.788Z,58.49
2023-03-26T07:46:11.787Z,57.69
2023-03-26T07:47:11.788Z,58.97
2023-03-26T07:48:11.810Z,56.56
2023-03-26T07:49:11.796Z,58.97
2023-03-26T07:50:11.775Z,62.36
2023-03-26T07:51:11.755Z,61.23
2023-03-26T07:52:11.768Z,56.56
2023-03-26T07:53:11.782Z,58.17
2023-03-26T07:54:11.787Z,58.81
2023-03-26T07:55:11.750Z,51.40
2023-03-26T07:56:11.776Z,52.69
2023-03-26T07:57:11.823Z,54.95
2023-03-26T07:58:11.740Z,56.72
2023-03-26T07:59:11.777Z,55.59
2023-03-26T08:00:11.736Z,60.42
2023-03-26T08:01:11.720Z,59.78
2023-03-26T08:02:11.740Z,59.62
2023-03-26T08:03:11.909Z,60.10
2023-03-26T08:04:23.157Z,58.49
2023-03-26T08:05:12.786Z,52.85
2023-03-26T08:06:11.690Z,58.81
2023-03-26T08:07:11.674Z,58.97
2023-03-26T08:08:11.686Z,57.20
2023-03-26T08:09:11.727Z,57.20
2023-03-26T08:10:11.680Z,56.56
2023-03-26T08:11:11.681Z,57.69
2023-03-26T08:12:11.676Z,55.75
2023-03-26T08:13:11.660Z,57.36
2023-03-26T08:14:11.651Z,61.39
2023-03-26T08:15:11.667Z,61.71
2023-03-26T08:16:11.741Z,73.32
2023-03-26T08:17:11.642Z,61.55
2023-03-26T08:18:11.686Z,52.53
2023-03-26T08:19:11.650Z,54.62
2023-03-26T08:20:11.643Z,56.40
2023-03-26T08:21:11.653Z,55.59
2023-03-26T08:22:11.604Z,57.85
2023-03-26T08:23:11.605Z,61.55
2023-03-26T08:24:11.610Z,61.39
2023-03-26T08:25:11.603Z,62.84
2023-03-26T08:26:11.633Z,61.23
2023-03-26T08:27:11.605Z,59.14
2023-03-26T08:28:11.575Z,58.65
2023-03-26T08:29:11.576Z,59.62
2023-03-26T08:30:11.580Z,55.75
2023-03-26T08:31:11.612Z,58.65
2023-03-26T08:32:11.581Z,58.49
2023-03-26T08:33:11.568Z,55.59
2023-03-26T08:34:11.550Z,56.56
2023-03-26T08:35:11.529Z,61.23
2023-03-26T08:36:11.532Z,56.56
2023-03-26T08:37:11.552Z,55.75
2023-03-26T08:38:11.556Z,56.56
2023-03-26T08:39:11.534Z,55.59
2023-03-26T08:40:11.524Z,58.81
2023-03-26T08:41:11.518Z,58.17
2023-03-26T08:42:11.577Z,59.14
2023-03-26T08:43:11.531Z,58.17
2023-03-26T08:44:11.519Z,56.07
2023-03-26T08:45:11.486Z,55.75
2023-03-26T08:46:11.527Z,56.40
2023-03-26T08:47:11.511Z,58.33
2023-03-26T08:48:11.495Z,60.10
2023-03-26T08:49:11.481Z,60.10
2023-03-26T08:50:11.478Z,58.33
2023-03-26T08:51:11.464Z,61.39
2023-03-26T08:52:11.477Z,59.62
2023-03-26T08:53:11.507Z,61.23
2023-03-26T08:54:11.444Z,60.26
2023-03-26T08:55:11.435Z,58.81
2023-03-26T08:56:11.548Z,61.23
2023-03-26T08:57:11.493Z,55.11
2023-03-26T08:58:11.436Z,54.79
2023-03-26T08:59:11.449Z,55.59
2023-03-26T09:00:11.419Z,57.52
2023-03-26T09:01:11.412Z,62.36
2023-03-26T09:02:11.501Z,63.00
2023-03-26T09:03:11.476Z,63.65
2023-03-26T09:04:11.522Z,64.78
2023-03-26T09:05:11.379Z,58.49
2023-03-26T09:06:11.395Z,58.49
2023-03-26T09:07:11.371Z,57.69
2023-03-26T09:08:11.373Z,57.04
2023-03-26T09:09:19.292Z,57.20
2023-03-26T09:10:12.356Z,58.01
2023-03-26T09:11:11.367Z,59.78
2023-03-26T09:12:11.364Z,57.36
2023-03-26T09:13:11.359Z,59.94
2023-03-26T09:14:11.342Z,59.30
2023-03-26T09:15:11.377Z,57.04
2023-03-26T09:16:11.411Z,56.88
2023-03-26T09:17:11.323Z,55.75
2023-03-26T09:18:11.371Z,57.52
2023-03-26T09:19:11.311Z,51.72
2023-03-26T09:20:11.336Z,55.43
2023-03-26T09:21:11.358Z,57.85
2023-03-26T09:22:11.300Z,56.07
2023-03-26T09:23:11.971Z,57.20
2023-03-26T09:24:11.281Z,58.17
2023-03-26T09:25:11.294Z,58.17
2023-03-26T09:26:11.299Z,57.36
2023-03-26T09:27:12.312Z,56.72
2023-03-26T09:28:11.269Z,58.65
2023-03-26T09:29:11.264Z,59.62
2023-03-26T09:30:11.280Z,60.26
2023-03-26T09:31:11.306Z,54.62
2023-03-26T09:32:11.288Z,60.42
2023-03-26T09:33:11.261Z,55.75
2023-03-26T09:34:11.252Z,61.55
2023-03-26T09:35:12.627Z,57.69
2023-03-26T09:36:12.243Z,59.30
2023-03-26T09:37:11.248Z,59.46
2023-03-26T09:38:11.279Z,58.17
2023-03-26T09:39:11.224Z,54.30
2023-03-26T09:40:11.256Z,57.20
2023-03-26T09:41:11.215Z,59.78
2023-03-26T09:42:12.310Z,56.88
2023-03-26T09:43:11.252Z,61.55
2023-03-26T09:44:11.218Z,58.81
2023-03-26T09:45:11.200Z,57.85
2023-03-26T09:46:11.231Z,58.97
2023-03-26T09:47:11.175Z,59.78
2023-03-26T09:48:11.182Z,61.55
2023-03-26T09:49:11.266Z,57.69
2023-03-26T09:50:11.197Z,61.23
2023-03-26T09:51:11.157Z,57.04
2023-03-26T09:52:11.155Z,60.26
2023-03-26T09:53:11.153Z,60.10
2023-03-26T09:54:11.179Z,59.62
2023-03-26T09:55:11.133Z,61.39
2023-03-26T09:56:11.162Z,57.20
2023-03-26T09:57:11.158Z,60.10
2023-03-26T09:58:11.129Z,60.10
2023-03-26T09:59:11.137Z,61.23
2023-03-26T10:00:11.095Z,61.39
2023-03-26T10:01:11.220Z,62.52
2023-03-26T10:02:11.124Z,62.04
2023-03-26T10:03:11.112Z,61.39
2023-03-26T10:04:11.095Z,62.68
2023-03-26T10:05:11.147Z,62.52
2023-03-26T10:06:11.090Z,61.87
2023-03-26T10:07:11.071Z,62.36
2023-03-26T10:08:11.043Z,59.94
2023-03-26T10:09:11.058Z,61.23
2023-03-26T10:10:11.075Z,61.55
2023-03-26T10:11:11.085Z,61.23
2023-03-26T10:12:11.096Z,59.46
2023-03-26T10:13:14.829Z,58.97
2023-03-26T10:14:12.033Z,58.17
2023-03-26T10:15:11.038Z,61.87
2023-03-26T10:16:11.162Z,59.14
2023-03-26T10:17:11.081Z,59.62
2023-03-26T10:18:27.678Z,61.87
2023-03-26T10:19:12.003Z,63.81
2023-03-26T10:20:11.020Z,59.46
2023-03-26T10:21:11.000Z,61.87
2023-03-26T10:22:11.010Z,61.39
2023-03-26T10:23:10.997Z,60.42
2023-03-26T10:24:10.986Z,57.52
2023-03-26T10:25:10.985Z,56.88
2023-03-26T10:26:10.971Z,61.71
2023-03-26T10:27:11.156Z,61.71
2023-03-26T10:28:11.996Z,61.07
2023-03-26T10:29:10.944Z,59.14
2023-03-26T10:30:10.999Z,60.75
2023-03-26T10:31:10.986Z,59.94
2023-03-26T10:32:10.919Z,61.07
2023-03-26T10:33:11.004Z,58.33
2023-03-26T10:34:10.952Z,58.01
2023-03-26T10:35:11.935Z,62.04
2023-03-26T10:36:10.901Z,60.10
2023-03-26T10:37:10.940Z,59.46
2023-03-26T10:38:10.877Z,57.85
2023-03-26T10:39:11.928Z,61.55
2023-03-26T10:40:11.907Z,60.26
2023-03-26T10:41:10.882Z,60.75
2023-03-26T10:42:10.867Z,57.20
2023-03-26T10:43:12.466Z,60.26
2023-03-26T10:44:10.909Z,60.91
2023-03-26T10:45:10.907Z,62.52
2023-03-26T10:46:10.918Z,66.06
2023-03-26T10:47:10.831Z,58.81
2023-03-26T10:48:11.838Z,60.59
2023-03-26T10:49:10.843Z,60.42
2023-03-26T10:50:10.841Z,59.78
2023-03-26T10:51:10.874Z,61.07
2023-03-26T10:52:10.848Z,60.91
2023-03-26T10:53:10.830Z,62.36
2023-03-26T10:54:10.819Z,64.45
2023-03-26T10:55:10.857Z,62.84
2023-03-26T10:56:10.842Z,63.65
2023-03-26T10:57:10.832Z,63.16
2023-03-26T10:58:10.808Z,63.49
2023-03-26T10:59:10.804Z,62.04
2023-03-26T11:00:10.817Z,60.59
2023-03-26T11:01:10.848Z,62.52
2023-03-26T11:02:10.818Z,60.42
2023-03-26T11:03:10.814Z,62.52
2023-03-26T11:04:10.838Z,62.68
2023-03-26T11:05:10.792Z,64.94
2023-03-26T11:06:10.768Z,62.84
2023-03-26T11:07:10.797Z,63.00
2023-03-26T11:08:10.776Z,64.13
2023-03-26T11:09:10.766Z,64.78
2023-03-26T11:10:10.753Z,64.61
2023-03-26T11:11:10.736Z,64.29
2023-03-26T11:12:26.180Z,65.58
2023-03-26T11:13:11.734Z,62.36
2023-03-26T11:14:10.802Z,61.71
2023-03-26T11:15:10.731Z,62.20
2023-03-26T11:16:10.773Z,62.04
2023-03-26T11:17:14.738Z,63.49
2023-03-26T11:18:11.724Z,61.71
2023-03-26T11:19:10.701Z,64.13
2023-03-26T11:20:10.716Z,62.84
2023-03-26T11:21:19.340Z,62.68
2023-03-26T11:22:11.740Z,63.49
2023-03-26T11:23:10.734Z,63.97
2023-03-26T11:24:10.753Z,64.61
2023-03-26T11:25:10.703Z,64.78
2023-03-26T11:26:10.686Z,62.84
2023-03-26T11:28:12.894Z,62.04
2023-03-26T11:29:32.619Z,62.20
2023-03-26T11:30:11.654Z,62.52
2023-03-26T11:31:10.694Z,61.07
2023-03-26T11:32:10.667Z,61.87
2023-03-26T11:33:10.681Z,62.68
2023-03-26T11:34:10.640Z,60.75
2023-03-26T11:34:36.567Z,62.68
2023-03-26T11:35:10.683Z,61.55
2023-03-26T11:36:10.666Z,60.26
2023-03-26T11:37:10.615Z,59.30
2023-03-26T11:38:10.597Z,60.91
2023-03-26T11:39:10.679Z,61.07
2023-03-26T11:40:10.699Z,61.71
2023-03-26T11:41:10.589Z,61.23
2023-03-26T11:42:10.588Z,62.04
2023-03-26T11:43:10.587Z,60.10
2023-03-26T11:44:10.612Z,60.75
2023-03-26T11:45:10.586Z,60.26
2023-03-26T11:46:10.605Z,61.07
2023-03-26T11:47:10.623Z,62.04
2023-03-26T11:48:10.564Z,59.30
2023-03-26T11:49:10.631Z,60.10
2023-03-26T11:50:10.575Z,60.26
2023-03-26T11:51:10.582Z,60.26
2023-03-26T11:52:10.551Z,61.07
2023-03-26T11:53:10.539Z,61.71
2023-03-26T11:54:10.579Z,60.59
2023-03-26T11:55:10.533Z,61.23
2023-03-26T11:56:10.536Z,64.13
2023-03-26T11:57:10.577Z,61.87
2023-03-26T11:58:11.221Z,63.33
2023-03-26T11:59:10.510Z,60.42
2023-03-26T12:00:10.525Z,62.68
2023-03-26T12:01:10.558Z,61.39
2023-03-26T12:02:10.551Z,60.10
2023-03-26T12:03:10.562Z,57.04
2023-03-26T12:04:10.505Z,55.75
2023-03-26T12:05:10.484Z,55.75
2023-03-26T12:06:10.489Z,61.87
2023-03-26T12:07:10.494Z,53.50
2023-03-26T12:08:10.477Z,59.78
2023-03-26T12:09:10.465Z,58.81
2023-03-26T12:10:19.013Z,61.87
2023-03-26T12:11:11.457Z,60.42
2023-03-26T12:12:10.462Z,60.75
2023-03-26T12:13:10.512Z,53.66
2023-03-26T12:14:10.436Z,60.75
2023-03-26T12:15:10.440Z,61.39
2023-03-26T12:16:10.525Z,60.75
2023-03-26T12:17:10.419Z,61.07
2023-03-26T12:18:10.492Z,60.59
2023-03-26T12:19:11.427Z,61.07
2023-03-26T12:20:10.410Z,56.56
2023-03-26T12:21:10.431Z,59.14
2023-03-26T12:22:10.391Z,60.10
2023-03-26T12:23:10.430Z,54.30
2023-03-26T12:24:10.393Z,59.46
2023-03-26T12:25:10.386Z,57.20
2023-03-26T12:26:10.371Z,59.14
2023-03-26T12:27:10.398Z,61.07
2023-03-26T12:28:10.365Z,54.79
2023-03-26T12:29:10.416Z,59.46
2023-03-26T12:30:10.368Z,61.55
2023-03-26T12:31:10.348Z,60.10
2023-03-26T12:32:10.352Z,58.17
2023-03-26T12:33:10.367Z,53.66
2023-03-26T12:34:10.408Z,54.46
2023-03-26T12:35:10.343Z,60.59
2023-03-26T12:36:10.361Z,57.69
2023-03-26T12:37:10.362Z,57.69
2023-03-26T12:38:10.333Z,59.30
2023-03-26T12:39:16.889Z,57.85
2023-03-26T12:40:14.258Z,55.11
2023-03-26T12:43:19.789Z,58.81
2023-03-26T12:44:50.276Z,60.26
2023-03-26T12:44:53.051Z,59.62
2023-03-26T12:44:55.921Z,62.52
2023-03-26T12:45:11.321Z,59.30
2023-03-26T12:47:56.279Z,60.26
2023-03-26T12:48:00.999Z,59.78
2023-03-26T12:48:11.327Z,61.71
2023-03-26T12:49:10.411Z,61.87
2023-03-26T12:50:10.294Z,62.04
2023-03-26T12:51:10.257Z,63.65
2023-03-26T12:52:10.337Z,60.91